Time;durP1;ratioP1;P1;durP2;ratioP2;P2;SDS_P1;SDS_P2;PMS_P1;PMS_P2;Temp;Humidity;BMP_temperature;BMP_pressure;BME280_temperature;BME280_humidity;BME280_pressure;Samples;Min_cycle;Max_cycle;Signal;HPM_P1;HPM_P2
2022/11/07 00:00:07;;;;;;;11.20;8.02;;;;;;;;;;4994477;28;20033;-45
2022/11/07 00:02:33;;;;;;;11.48;8.50;;;;;;;;;;4994069;28;20449;-44
2022/11/07 00:04:58;;;;;;;10.82;7.20;;;;;;;;;;4992166;28;20033;-45
2022/11/07 00:07:23;;;;;;;8.65;7.28;;;;;;;;;;4994775;28;20036;-46
2022/11/07 00:09:49;;;;;;;18.35;7.97;;;;;;;;;;4993693;28;20027;-43
2022/11/07 00:12:14;;;;;;;12.48;7.93;;;;;;;;;;4992043;28;20078;-43
2022/11/07 00:14:40;;;;;;;12.35;10.15;;;;;;;;;;5000511;28;20394;-43
2022/11/07 00:17:06;;;;;;;12.35;8.82;;;;;;;;;;4998320;28;20092;-43
2022/11/07 00:19:32;;;;;;;14.95;10.18;;;;;;;;;;5000350;28;20042;-43
2022/11/07 00:21:57;;;;;;;14.50;10.40;;;;;;;;;;4999065;28;20065;-44
2022/11/07 00:24:22;;;;;;;13.50;10.35;;;;;;;;;;4998794;28;20141;-43
2022/11/07 00:26:48;;;;;;;15.70;9.57;;;;;;;;;;5000244;28;20064;-43
2022/11/07 00:29:17;;;;;;;18.63;10.55;;;;;;;;;;4996483;28;20111;-43
2022/11/07 00:31:43;;;;;;;17.88;10.10;;;;;;;;;;4997112;28;20141;-45
2022/11/07 00:34:09;;;;;;;15.65;9.48;;;;;;;;;;4994825;28;20554;-43
2022/11/07 00:36:34;;;;;;;14.85;9.27;;;;;;;;;;4997831;28;20057;-43
2022/11/07 00:39:00;;;;;;;13.90;9.48;;;;;;;;;;4996609;28;20061;-45
2022/11/07 00:41:25;;;;;;;11.32;9.07;;;;;;;;;;4997530;28;20463;-49
2022/11/07 00:43:51;;;;;;;14.95;9.52;;;;;;;;;;4992241;28;20096;-46
2022/11/07 00:46:18;;;;;;;13.77;9.90;;;;;;;;;;4999193;28;20034;-44
2022/11/07 00:48:44;;;;;;;13.25;9.40;;;;;;;;;;4997412;28;20129;-43
2022/11/07 00:51:13;;;;;;;15.93;9.52;;;;;;;;;;4995985;28;20120;-48
2022/11/07 00:53:39;;;;;;;16.02;9.93;;;;;;;;;;4996098;28;20043;-43
2022/11/07 00:56:07;;;;;;;12.82;9.45;;;;;;;;;;4997332;28;20369;-48
2022/11/07 00:58:33;;;;;;;16.55;9.32;;;;;;;;;;4994498;28;20048;-44
2022/11/07 01:00:59;;;;;;;19.77;8.85;;;;;;;;;;4996318;28;20027;-43
2022/11/07 01:06:09;;;;;;;16.80;8.93;;;;;;;;;;4992969;28;20503;-45
2022/11/07 01:08:35;;;;;;;11.98;7.10;;;;;;;;;;4986702;28;20459;-46
2022/11/07 01:11:04;;;;;;;12.77;8.00;;;;;;;;;;4999433;28;20026;-49
2022/11/07 01:13:29;;;;;;;12.20;8.45;;;;;;;;;;4999689;28;20070;-45
2022/11/07 01:15:55;;;;;;;12.63;8.50;;;;;;;;;;4996038;28;20045;-46
2022/11/07 01:18:20;;;;;;;15.20;8.35;;;;;;;;;;5000748;28;20058;-42
2022/11/07 01:20:46;;;;;;;11.30;8.80;;;;;;;;;;4998054;28;20022;-46
2022/11/07 01:23:11;;;;;;;9.88;8.38;;;;;;;;;;4999859;28;20118;-44
2022/11/07 01:25:38;;;;;;;11.00;8.30;;;;;;;;;;4995724;28;20034;-49
2022/11/07 01:28:05;;;;;;;12.57;8.85;;;;;;;;;;4999447;28;20050;-48
2022/11/07 01:30:30;;;;;;;12.38;8.35;;;;;;;;;;4997721;28;20022;-44
2022/11/07 01:32:56;;;;;;;12.20;8.68;;;;;;;;;;4995470;28;20124;-45
2022/11/07 01:35:21;;;;;;;11.77;8.68;;;;;;;;;;4990169;28;20040;-43
2022/11/07 01:37:47;;;;;;;13.38;8.77;;;;;;;;;;4996842;28;20570;-42
2022/11/07 01:40:12;;;;;;;9.95;8.18;;;;;;;;;;4998165;28;20026;-46
2022/11/07 01:42:37;;;;;;;13.30;8.32;;;;;;;;;;5002092;28;20036;-47
2022/11/07 01:45:03;;;;;;;9.93;8.30;;;;;;;;;;4994736;28;20026;-46
2022/11/07 01:47:37;;;;;;;11.82;8.23;;;;;;;;;;4989607;28;20030;-43
2022/11/07 01:50:06;;;;;;;14.30;8.73;;;;;;;;;;4994616;28;20390;-47
2022/11/07 01:52:38;;;;;;;10.68;7.53;;;;;;;;;;4995729;28;20018;-44
2022/11/07 01:55:07;;;;;;;;;;;;;;;;;;4998861;28;20028;-43
2022/11/07 01:57:39;;;;;;;10.23;7.60;;;;;;;;;;4992593;28;20355;-45
2022/11/07 02:00:08;;;;;;;10.55;7.97;;;;;;;;;;4995237;28;20042;-47
2022/11/07 02:02:34;;;;;;;14.18;7.45;;;;;;;;;;4999184;28;20548;-43
2022/11/07 02:05:02;;;;;;;11.90;7.88;;;;;;;;;;4992702;28;20017;-43
2022/11/07 02:07:28;;;;;;;10.15;7.80;;;;;;;;;;4996670;28;20038;-42
2022/11/07 02:09:54;;;;;;;9.50;6.80;;;;;;;;;;4995748;28;20084;-43
2022/11/07 02:12:22;;;;;;;12.63;7.18;;;;;;;;;;4991054;28;20434;-45
2022/11/07 02:14:48;;;;;;;12.68;8.73;;;;;;;;;;4994975;28;20046;-43
2022/11/07 02:17:14;;;;;;;9.93;7.85;;;;;;;;;;4998015;28;20105;-43
2022/11/07 02:19:52;;;;;;;14.13;9.45;;;;;;;;;;4995857;28;20038;-43
2022/11/07 02:22:33;;;;;;;10.30;8.40;;;;;;;;;;4991456;28;20113;-44
2022/11/07 02:25:02;;;;;;;11.60;7.35;;;;;;;;;;4993638;28;20095;-44
2022/11/07 02:27:29;;;;;;;10.25;6.57;;;;;;;;;;4996923;28;20486;-44
2022/11/07 02:30:02;;;;;;;8.43;6.35;;;;;;;;;;4990507;28;20453;-43
2022/11/07 02:32:28;;;;;;;10.00;7.25;;;;;;;;;;4988331;28;20549;-42
2022/11/07 02:34:56;;;;;;;10.35;7.22;;;;;;;;;;4993793;28;20030;-42
2022/11/07 02:37:27;;;;;;;11.70;6.90;;;;;;;;;;4996550;28;20097;-45
2022/11/07 02:39:53;;;;;;;15.63;7.77;;;;;;;;;;4991815;28;20046;-42
2022/11/07 02:42:18;;;;;;;10.18;7.25;;;;;;;;;;4999219;28;20967;-42
2022/11/07 02:44:45;;;;;;;8.90;7.03;;;;;;;;;;4989684;28;20121;-43
2022/11/07 02:47:11;;;;;;;10.27;7.43;;;;;;;;;;4994381;28;20049;-43
2022/11/07 02:49:36;;;;;;;9.30;7.00;;;;;;;;;;4991504;28;20042;-43
2022/11/07 02:52:02;;;;;;;10.38;7.32;;;;;;;;;;4993257;28;20023;-43
2022/11/07 02:54:27;;;;;;;10.63;7.25;;;;;;;;;;4991718;28;20033;-45
2022/11/07 02:56:52;;;;;;;8.85;6.70;;;;;;;;;;4995939;28;20033;-45
2022/11/07 02:59:18;;;;;;;7.53;6.82;;;;;;;;;;4995374;28;20042;-43
2022/11/07 03:01:43;;;;;;;9.57;6.50;;;;;;;;;;4988220;28;20038;-41
2022/11/07 03:04:08;;;;;;;7.43;5.90;;;;;;;;;;4989458;28;20042;-43
2022/11/07 03:06:34;;;;;;;8.50;6.28;;;;;;;;;;4994853;28;20031;-45
2022/11/07 03:08:59;;;;;;;9.63;6.47;;;;;;;;;;4991864;28;20554;-43
2022/11/07 03:11:24;;;;;;;8.20;6.45;;;;;;;;;;4994208;28;20081;-45
2022/11/07 03:13:50;;;;;;;8.63;6.85;;;;;;;;;;4992297;28;20050;-43
2022/11/07 03:16:17;;;;;;;8.00;7.07;;;;;;;;;;4990865;28;20041;-43
2022/11/07 03:18:43;;;;;;;12.18;6.97;;;;;;;;;;4993343;28;20049;-44
2022/11/07 03:21:08;;;;;;;9.23;7.60;;;;;;;;;;4998401;28;20030;-43
2022/11/07 03:23:35;;;;;;;9.82;7.03;;;;;;;;;;4995727;28;20450;-44
2022/11/07 03:26:00;;;;;;;11.00;7.47;;;;;;;;;;4993600;28;20113;-44
2022/11/07 03:28:26;;;;;;;7.63;6.82;;;;;;;;;;4992941;28;20140;-43
2022/11/07 03:30:51;;;;;;;13.60;7.70;;;;;;;;;;4998610;28;20462;-44
2022/11/07 03:33:17;;;;;;;7.70;6.90;;;;;;;;;;4995968;28;20040;-43
2022/11/07 03:35:42;;;;;;;9.65;7.07;;;;;;;;;;4992653;28;20731;-46
2022/11/07 03:38:09;;;;;;;12.80;7.32;;;;;;;;;;4996688;28;20077;-44
2022/11/07 03:40:34;;;;;;;10.05;7.10;;;;;;;;;;4997383;28;20041;-43
2022/11/07 03:42:59;;;;;;;11.52;7.60;;;;;;;;;;4996138;28;20042;-43
2022/11/07 03:45:25;;;;;;;8.75;6.80;;;;;;;;;;4993117;28;20025;-43
2022/11/07 03:47:50;;;;;;;11.00;7.03;;;;;;;;;;4997942;28;20049;-43
2022/11/07 03:50:18;;;;;;;9.00;6.75;;;;;;;;;;4998539;28;20026;-43
2022/11/07 03:52:44;;;;;;;7.93;6.40;;;;;;;;;;4999658;28;20045;-43
2022/11/07 03:55:10;;;;;;;9.77;6.85;;;;;;;;;;4995819;28;20030;-45
2022/11/07 03:57:36;;;;;;;9.02;6.93;;;;;;;;;;5000677;28;20022;-43
2022/11/07 04:00:02;;;;;;;10.90;7.05;;;;;;;;;;4999720;28;20628;-42
2022/11/07 04:02:28;;;;;;;8.50;6.72;;;;;;;;;;4999912;28;20034;-42
2022/11/07 04:04:53;;;;;;;11.15;6.75;;;;;;;;;;5000746;28;20037;-44
2022/11/07 04:07:18;;;;;;;11.13;6.85;;;;;;;;;;4991947;28;20037;-43
2022/11/07 04:09:44;;;;;;;12.13;7.10;;;;;;;;;;5000773;28;20512;-45
2022/11/07 04:17:37;;;;;;;11.25;6.60;;;;;;;;;;4999842;28;20089;-44
2022/11/07 04:20:03;;;;;;;8.98;6.40;;;;;;;;;;5002156;28;20031;-44
2022/11/07 04:22:28;;;;;;;10.25;6.53;;;;;;;;;;4995034;28;20061;-43
2022/11/07 04:24:54;;;;;;;7.55;6.38;;;;;;;;;;4998403;28;20035;-43
2022/11/07 04:30:18;;;;;;;8.27;6.35;;;;;;;;;;4998726;28;20155;-43
2022/11/07 04:32:48;;;;;;;7.38;5.90;;;;;;;;;;4997979;28;20039;-43
2022/11/07 04:35:14;;;;;;;7.20;5.78;;;;;;;;;;4995135;28;20027;-43
2022/11/07 04:37:40;;;;;;;7.47;5.90;;;;;;;;;;4997408;28;20033;-43
2022/11/07 04:40:07;;;;;;;5.50;4.95;;;;;;;;;;4998021;28;20045;-42
2022/11/07 04:42:33;;;;;;;8.70;5.40;;;;;;;;;;4995741;28;21713;-45
2022/11/07 04:44:58;;;;;;;7.30;5.43;;;;;;;;;;4999906;28;20022;-45
2022/11/07 04:47:23;;;;;;;8.65;5.88;;;;;;;;;;4993680;28;20065;-43
2022/11/07 04:49:49;;;;;;;8.48;5.70;;;;;;;;;;4999060;28;20031;-43
2022/11/07 04:52:14;;;;;;;11.70;5.90;;;;;;;;;;4992509;28;20464;-45
2022/11/07 04:54:39;;;;;;;10.68;6.35;;;;;;;;;;5001168;28;20035;-42
2022/11/07 04:57:05;;;;;;;12.43;5.75;;;;;;;;;;4995565;28;20029;-44
2022/11/07 04:59:30;;;;;;;6.80;6.00;;;;;;;;;;4996784;28;21933;-43
2022/11/07 05:01:55;;;;;;;10.02;5.50;;;;;;;;;;4999045;28;20029;-43
2022/11/07 05:04:21;;;;;;;7.22;5.72;;;;;;;;;;4996934;28;20038;-44
2022/11/07 05:06:46;;;;;;;7.35;5.60;;;;;;;;;;4994773;28;20038;-46
2022/11/07 05:09:15;;;;;;;7.88;5.88;;;;;;;;;;4998298;28;20403;-44
2022/11/07 05:11:41;;;;;;;6.68;5.47;;;;;;;;;;5000801;28;20068;-42
2022/11/07 05:14:07;;;;;;;6.82;5.65;;;;;;;;;;4995854;28;20476;-43
2022/11/07 05:16:33;;;;;;;9.30;5.70;;;;;;;;;;4992965;28;20104;-44
2022/11/07 05:18:58;;;;;;;6.95;6.07;;;;;;;;;;4996434;28;20038;-44
2022/11/07 05:21:24;;;;;;;7.50;5.90;;;;;;;;;;4991726;28;20041;-45
2022/11/07 05:23:49;;;;;;;6.68;5.05;;;;;;;;;;4996237;28;20050;-46
2022/11/07 05:26:14;;;;;;;10.70;6.10;;;;;;;;;;4990177;28;20024;-45
2022/11/07 05:28:40;;;;;;;6.30;5.15;;;;;;;;;;4987136;28;20073;-46
2022/11/07 05:31:06;;;;;;;8.43;5.95;;;;;;;;;;4991589;28;20965;-45
2022/11/07 05:33:32;;;;;;;9.02;5.70;;;;;;;;;;4998219;28;20042;-44
2022/11/07 05:36:10;;;;;;;6.10;5.50;;;;;;;;;;4984853;28;20030;-49
2022/11/07 05:38:35;;;;;;;5.93;5.25;;;;;;;;;;4994834;28;20050;-44
2022/11/07 05:41:03;;;;;;;6.30;5.43;;;;;;;;;;4997463;28;20026;-45
2022/11/07 05:43:28;;;;;;;8.95;5.50;;;;;;;;;;4988357;28;20105;-45
2022/11/07 05:45:58;;;;;;;7.50;4.95;;;;;;;;;;4994105;28;20030;-44
2022/11/07 05:48:24;;;;;;;6.93;5.05;;;;;;;;;;4989149;28;20038;-43
2022/11/07 05:50:49;;;;;;;5.32;4.82;;;;;;;;;;4991637;28;20367;-45
2022/11/07 05:53:14;;;;;;;6.30;4.72;;;;;;;;;;4999094;28;20491;-44
2022/11/07 05:55:40;;;;;;;6.20;5.22;;;;;;;;;;4990881;28;20061;-44
2022/11/07 05:58:10;;;;;;;6.97;5.07;;;;;;;;;;4993011;28;20507;-43
2022/11/07 06:00:35;;;;;;;6.32;4.80;;;;;;;;;;4997930;28;20524;-43
2022/11/07 06:03:01;;;;;;;9.00;4.80;;;;;;;;;;4990130;28;20380;-43
2022/11/07 06:05:27;;;;;;;6.70;4.80;;;;;;;;;;4989853;28;20030;-44
2022/11/07 06:07:53;;;;;;;6.10;4.93;;;;;;;;;;4990109;28;20680;-44
2022/11/07 06:10:19;;;;;;;5.20;4.70;;;;;;;;;;4990122;28;20073;-46
2022/11/07 06:12:44;;;;;;;7.40;4.75;;;;;;;;;;4989705;28;20043;-43
2022/11/07 06:15:10;;;;;;;4.90;4.40;;;;;;;;;;4987979;28;20382;-44
2022/11/07 06:17:35;;;;;;;5.50;4.68;;;;;;;;;;4989214;28;20038;-44
2022/11/07 06:20:01;;;;;;;9.35;5.28;;;;;;;;;;4991334;28;20441;-44
2022/11/07 06:22:28;;;;;;;8.02;4.97;;;;;;;;;;4988105;28;20089;-45
2022/11/07 06:24:54;;;;;;;7.75;4.30;;;;;;;;;;4986076;28;20038;-46
2022/11/07 06:27:19;;;;;;;5.63;4.85;;;;;;;;;;4988700;28;20616;-47
2022/11/07 06:29:44;;;;;;;6.43;5.00;;;;;;;;;;4988607;28;20567;-46
2022/11/07 06:32:10;;;;;;;5.65;4.65;;;;;;;;;;4990402;28;20080;-43
2022/11/07 06:34:35;;;;;;;7.93;5.40;;;;;;;;;;4983431;28;20110;-44
2022/11/07 06:37:00;;;;;;;8.63;5.10;;;;;;;;;;4983766;28;20042;-43
2022/11/07 06:39:26;;;;;;;9.43;5.45;;;;;;;;;;4984576;28;20039;-43
2022/11/07 06:41:51;;;;;;;7.22;5.07;;;;;;;;;;4987405;28;20517;-44
2022/11/07 06:44:17;;;;;;;7.13;5.40;;;;;;;;;;4976699;28;20517;-44
2022/11/07 06:46:45;;;;;;;5.65;5.15;;;;;;;;;;4984089;28;21425;-43
2022/11/07 06:49:12;;;;;;;5.18;4.72;;;;;;;;;;4981922;28;20034;-44
2022/11/07 06:51:37;;;;;;;5.97;4.75;;;;;;;;;;4986433;28;20050;-44
2022/11/07 06:54:03;;;;;;;7.63;4.78;;;;;;;;;;4976928;28;20072;-44
2022/11/07 06:56:28;;;;;;;5.53;5.07;;;;;;;;;;4981454;28;20130;-46
2022/11/07 06:58:53;;;;;;;10.85;4.93;;;;;;;;;;4982058;28;20047;-53
2022/11/07 07:01:19;;;;;;;5.63;5.05;;;;;;;;;;4991015;28;20356;-46
2022/11/07 07:03:44;;;;;;;7.10;5.70;;;;;;;;;;4988663;28;20046;-45
2022/11/07 07:06:13;;;;;;;6.53;5.43;;;;;;;;;;4986177;28;20034;-43
2022/11/07 07:08:38;;;;;;;7.72;5.30;;;;;;;;;;4985456;28;20403;-44
2022/11/07 07:11:06;;;;;;;7.93;5.18;;;;;;;;;;4980420;28;20056;-47
2022/11/07 07:13:32;;;;;;;7.55;5.00;;;;;;;;;;4985659;28;20040;-43
2022/11/07 07:15:58;;;;;;;6.78;4.97;;;;;;;;;;4983951;28;20027;-45
2022/11/07 07:18:24;;;;;;;5.93;4.40;;;;;;;;;;4981590;28;20042;-43
2022/11/07 07:20:51;;;;;;;9.13;5.20;;;;;;;;;;4988032;28;20033;-45
2022/11/07 07:23:17;;;;;;;5.78;4.78;;;;;;;;;;5000602;28;20038;-47
2022/11/07 07:25:43;;;;;;;5.70;5.13;;;;;;;;;;4988343;28;20033;-46
2022/11/07 07:28:08;;;;;;;6.47;4.60;;;;;;;;;;4991452;28;20069;-51
2022/11/07 07:30:34;;;;;;;8.63;4.40;;;;;;;;;;4990076;28;20263;-44
2022/11/07 07:32:59;;;;;;;5.30;4.03;;;;;;;;;;4995540;28;20038;-43
2022/11/07 07:35:24;;;;;;;7.45;4.70;;;;;;;;;;4993987;28;20025;-42
2022/11/07 07:37:51;;;;;;;5.10;4.25;;;;;;;;;;4992966;28;20046;-43
2022/11/07 07:40:17;;;;;;;4.75;4.35;;;;;;;;;;4989190;28;20018;-44
2022/11/07 07:42:43;;;;;;;4.55;4.15;;;;;;;;;;4987897;28;20659;-44
2022/11/07 07:45:10;;;;;;;4.53;4.13;;;;;;;;;;4990665;28;20038;-44
2022/11/07 07:47:36;;;;;;;4.07;3.67;;;;;;;;;;4990985;28;20033;-43
2022/11/07 07:50:03;;;;;;;10.90;3.80;;;;;;;;;;4997444;28;20037;-44
2022/11/07 07:52:28;;;;;;;4.28;3.95;;;;;;;;;;4995146;28;20026;-45
2022/11/07 07:54:54;;;;;;;7.47;4.47;;;;;;;;;;4993604;28;20021;-43
2022/11/07 07:57:20;;;;;;;4.00;3.60;;;;;;;;;;4995672;28;20085;-44
2022/11/07 07:59:45;;;;;;;4.25;3.80;;;;;;;;;;4996703;28;20038;-44
2022/11/07 08:02:11;;;;;;;7.80;3.47;;;;;;;;;;4991945;28;20019;-44
2022/11/07 08:04:37;;;;;;;3.97;3.65;;;;;;;;;;4996083;28;20557;-44
2022/11/07 08:07:03;;;;;;;3.88;3.20;;;;;;;;;;4995423;28;20035;-44
2022/11/07 08:09:35;;;;;;;4.32;3.13;;;;;;;;;;4995947;28;20050;-43
2022/11/07 08:12:00;;;;;;;3.40;3.10;;;;;;;;;;4994129;28;20127;-44
2022/11/07 08:14:26;;;;;;;3.58;3.20;;;;;;;;;;4991737;28;20482;-49
2022/11/07 08:16:51;;;;;;;4.47;3.33;;;;;;;;;;4995034;28;20034;-47
2022/11/07 08:19:16;;;;;;;4.32;3.42;;;;;;;;;;4993477;28;20095;-46
2022/11/07 08:21:42;;;;;;;6.70;3.03;;;;;;;;;;4992072;28;20054;-43
2022/11/07 08:24:08;;;;;;;7.03;2.75;;;;;;;;;;4994520;28;20109;-60
2022/11/07 08:26:34;;;;;;;5.60;2.90;;;;;;;;;;4994472;28;20406;-45
2022/11/07 08:28:59;;;;;;;4.97;2.85;;;;;;;;;;4988515;28;20449;-45
2022/11/07 08:31:24;;;;;;;3.30;3.00;;;;;;;;;;4992251;28;20032;-46
2022/11/07 08:33:50;;;;;;;3.20;2.90;;;;;;;;;;4994535;28;20038;-44
2022/11/07 08:36:15;;;;;;;3.92;2.97;;;;;;;;;;4999567;28;20035;-44
2022/11/07 08:38:40;;;;;;;4.95;3.33;;;;;;;;;;4998242;28;20484;-43
2022/11/07 08:41:06;;;;;;;6.38;3.60;;;;;;;;;;4998677;28;20041;-45
2022/11/07 08:43:31;;;;;;;6.35;3.13;;;;;;;;;;4998229;28;20051;-44
2022/11/07 08:45:57;;;;;;;6.32;3.13;;;;;;;;;;4996516;28;20542;-43
2022/11/07 08:48:22;;;;;;;3.90;2.72;;;;;;;;;;4996480;28;20046;-43
2022/11/07 08:50:53;;;;;;;5.47;2.92;;;;;;;;;;4995383;28;20499;-44
2022/11/07 08:53:18;;;;;;;5.63;3.25;;;;;;;;;;4999193;28;20057;-44
2022/11/07 08:55:44;;;;;;;4.07;3.20;;;;;;;;;;4998371;28;20386;-48
2022/11/07 08:58:09;;;;;;;6.80;3.47;;;;;;;;;;4996258;28;20403;-46
2022/11/07 09:00:35;;;;;;;4.85;3.25;;;;;;;;;;4992702;28;20033;-44
2022/11/07 09:03:03;;;;;;;4.43;2.92;;;;;;;;;;4995498;28;20046;-46
2022/11/07 09:05:28;;;;;;;5.43;2.53;;;;;;;;;;4999209;28;20027;-47
2022/11/07 09:07:53;;;;;;;3.47;2.97;;;;;;;;;;4995811;28;20091;-45
2022/11/07 09:10:19;;;;;;;4.65;3.20;;;;;;;;;;4999387;28;20034;-47
2022/11/07 09:12:48;;;;;;;4.53;2.90;;;;;;;;;;4999075;28;20132;-44
2022/11/07 09:15:14;;;;;;;3.05;2.75;;;;;;;;;;4989091;28;20045;-45
2022/11/07 09:17:40;;;;;;;3.05;2.78;;;;;;;;;;4996207;28;20037;-44
2022/11/07 09:20:07;;;;;;;5.25;2.40;;;;;;;;;;4995894;28;20031;-46
2022/11/07 09:22:32;;;;;;;3.08;2.50;;;;;;;;;;4994007;28;20085;-44
2022/11/07 09:24:58;;;;;;;3.13;2.67;;;;;;;;;;4998839;28;20044;-50
2022/11/07 09:27:23;;;;;;;6.18;2.70;;;;;;;;;;4997440;28;20025;-43
2022/11/07 09:29:48;;;;;;;3.95;2.72;;;;;;;;;;4989711;28;20041;-46
2022/11/07 09:32:14;;;;;;;6.05;2.97;;;;;;;;;;4996104;28;20141;-44
2022/11/07 09:34:39;;;;;;;5.30;2.90;;;;;;;;;;4994003;28;20041;-45
2022/11/07 09:37:05;;;;;;;2.70;2.45;;;;;;;;;;4997631;28;20041;-43
2022/11/07 09:39:30;;;;;;;2.70;2.40;;;;;;;;;;4999252;28;20510;-46
2022/11/07 09:42:09;;;;;;;5.65;2.38;;;;;;;;;;4992321;28;20041;-44
2022/11/07 09:44:54;;;;;;;3.45;2.50;;;;;;;;;;4998204;28;20121;-44
2022/11/07 09:47:28;;;;;;;3.38;2.00;;;;;;;;;;4997344;28;20045;-44
2022/11/07 09:49:58;;;;;;;4.13;2.58;;;;;;;;;;4995575;28;20053;-44
2022/11/07 09:52:30;;;;;;;2.92;2.15;;;;;;;;;;4994277;28;20025;-47
2022/11/07 09:55:06;;;;;;;2.67;2.45;;;;;;;;;;4999639;28;20168;-46
2022/11/07 09:57:34;;;;;;;4.18;2.40;;;;;;;;;;4992395;28;20037;-44
2022/11/07 10:00:03;;;;;;;2.10;1.90;;;;;;;;;;4995474;28;20651;-48
2022/11/07 10:02:32;;;;;;;3.92;2.30;;;;;;;;;;4996263;28;20391;-49
2022/11/07 10:05:03;;;;;;;4.60;2.55;;;;;;;;;;4996394;28;20520;-49
2022/11/07 10:07:37;;;;;;;2.05;1.90;;;;;;;;;;4995322;28;20041;-44
2022/11/07 10:10:12;;;;;;;2.40;2.20;;;;;;;;;;4997750;28;20025;-45
2022/11/07 10:12:40;;;;;;;2.38;2.15;;;;;;;;;;4990441;28;20038;-46
2022/11/07 10:15:19;;;;;;;3.83;2.15;;;;;;;;;;4993787;28;20042;-43
2022/11/07 10:18:03;;;;;;;3.17;2.03;;;;;;;;;;4995842;28;20053;-46
2022/11/07 10:20:47;;;;;;;3.15;1.83;;;;;;;;;;4991260;28;20034;-44
2022/11/07 10:23:37;;;;;;;5.00;1.80;;;;;;;;;;4997317;28;20054;-46
2022/11/07 10:26:10;;;;;;;3.13;2.25;;;;;;;;;;4998227;28;20033;-43
2022/11/07 10:28:44;;;;;;;8.18;1.98;;;;;;;;;;4993673;28;20084;-44
2022/11/07 10:31:11;;;;;;;3.63;2.10;;;;;;;;;;4999251;28;20022;-46
2022/11/07 10:33:59;;;;;;;3.40;2.15;;;;;;;;;;4998433;28;20552;-47
2022/11/07 10:36:27;;;;;;;3.30;2.40;;;;;;;;;;4993229;28;20166;-47
2022/11/07 10:38:53;;;;;;;6.55;2.67;;;;;;;;;;4997632;28;20525;-49
2022/11/07 10:41:18;;;;;;;4.82;2.33;;;;;;;;;;4996420;28;20058;-47
2022/11/07 10:43:48;;;;;;;6.82;2.60;;;;;;;;;;4990228;28;20135;-47
2022/11/07 10:46:36;;;;;;;5.13;3.05;;;;;;;;;;4999547;28;20022;-47
2022/11/07 10:49:03;;;;;;;3.30;2.40;;;;;;;;;;4988481;28;20462;-47
2022/11/07 10:51:36;;;;;;;10.20;3.10;;;;;;;;;;4996927;28;20018;-47
2022/11/07 10:54:01;;;;;;;8.50;2.90;;;;;;;;;;4996498;28;20343;-44
2022/11/07 10:56:27;;;;;;;6.75;2.95;;;;;;;;;;4999134;28;20027;-49
2022/11/07 10:58:52;;;;;;;8.82;7.32;;;;;;;;;;4988146;28;20042;-49
2022/11/07 11:01:25;;;;;;;10.60;5.70;;;;;;;;;;4999350;28;20045;-46
2022/11/07 11:03:51;;;;;;;7.72;2.83;;;;;;;;;;4995684;28;20046;-44
2022/11/07 11:06:16;;;;;;;9.88;3.00;;;;;;;;;;4997766;28;20044;-44
2022/11/07 11:08:42;;;;;;;5.97;4.38;;;;;;;;;;4999224;28;20513;-44
2022/11/07 11:11:20;;;;;;;10.30;4.10;;;;;;;;;;4993152;28;20105;-47
2022/11/07 11:13:46;;;;;;;6.68;4.35;;;;;;;;;;4993365;28;20168;-44
2022/11/07 11:16:29;;;;;;;14.48;9.00;;;;;;;;;;4991754;28;20034;-44
2022/11/07 11:18:57;;;;;;;18.85;10.73;;;;;;;;;;4997188;28;20034;-45
2022/11/07 11:21:23;;;;;;;15.48;12.07;;;;;;;;;;4998122;28;20052;-43
2022/11/07 11:23:50;;;;;;;14.80;10.50;;;;;;;;;;4991960;28;20085;-46
2022/11/07 11:26:27;;;;;;;17.95;11.27;;;;;;;;;;4997318;28;20116;-43
2022/11/07 11:28:58;;;;;;;18.83;11.73;;;;;;;;;;4994639;28;20041;-46
2022/11/07 11:31:31;;;;;;;15.32;11.80;;;;;;;;;;4993504;28;20042;-51
2022/11/07 11:33:59;;;;;;;;;;;;;;;;;;4998237;28;20038;-44
2022/11/07 11:36:29;;;;;;;19.20;11.07;;;;;;;;;;4990971;28;19925;-44
2022/11/07 11:38:55;;;;;;;17.55;11.35;;;;;;;;;;4991702;28;20180;-43
2022/11/07 11:41:38;;;;;;;12.10;10.38;;;;;;;;;;4993456;28;20109;-44
2022/11/07 11:44:19;;;;;;;13.18;9.60;;;;;;;;;;4994645;28;20039;-46
2022/11/07 11:46:51;;;;;;;13.65;9.18;;;;;;;;;;4992932;28;20035;-46
2022/11/07 11:49:16;;;;;;;;;;;;;;;;;;4994538;28;20054;-44
2022/11/07 11:51:47;;;;;;;16.73;9.98;;;;;;;;;;4993525;28;19918;-46
2022/11/07 11:54:14;;;;;;;13.55;10.10;;;;;;;;;;4992473;28;20534;-44
2022/11/07 11:56:57;;;;;;;13.65;9.73;;;;;;;;;;4998593;28;20034;-44
2022/11/07 12:00:01;;;;;;;12.10;9.93;;;;;;;;;;4991673;28;20034;-44
2022/11/07 12:02:47;;;;;;;15.20;10.27;;;;;;;;;;4993199;28;20034;-44
2022/11/07 12:05:39;;;;;;;11.90;9.82;;;;;;;;;;4999171;28;20086;-43
2022/11/07 12:08:11;;;;;;;16.33;10.02;;;;;;;;;;4992921;28;20493;-43
2022/11/07 12:10:55;;;;;;;13.20;8.77;;;;;;;;;;4996038;28;20075;-44
2022/11/07 12:13:26;;;;;;;11.13;8.98;;;;;;;;;;4995958;28;20046;-46
2022/11/07 12:16:28;;;;;;;14.95;9.05;;;;;;;;;;4994327;28;20031;-46
2022/11/07 12:19:23;;;;;;;;;;;;;;;;;;4992397;28;20077;-44
2022/11/07 12:22:15;;;;;;;13.52;8.73;;;;;;;;;;4990069;28;19917;-45
2022/11/07 12:24:44;;;;;;;13.85;8.27;;;;;;;;;;4998537;28;20054;-45
2022/11/07 12:27:16;;;;;;;15.65;11.02;;;;;;;;;;4995611;28;20037;-44
2022/11/07 12:29:57;;;;;;;12.45;9.15;;;;;;;;;;4995610;28;20076;-43
2022/11/07 12:32:42;;;;;;;11.95;7.97;;;;;;;;;;4999003;28;20478;-46
2022/11/07 12:35:16;;;;;;;15.80;7.90;;;;;;;;;;4996830;28;20050;-44
2022/11/07 12:38:02;;;;;;;12.05;7.85;;;;;;;;;;4994085;28;20038;-44
2022/11/07 12:40:48;;;;;;;16.65;8.25;;;;;;;;;;4995128;28;20046;-45
2022/11/07 12:43:44;;;;;;;18.77;10.40;;;;;;;;;;4989258;28;20035;-43
2022/11/07 12:46:29;;;;;;;16.10;8.95;;;;;;;;;;4996289;28;20050;-44
2022/11/07 12:49:07;;;;;;;12.98;8.98;;;;;;;;;;4997428;28;20076;-44
2022/11/07 12:51:45;;;;;;;18.15;8.07;;;;;;;;;;4999979;28;20030;-46
2022/11/07 12:54:27;;;;;;;18.65;8.85;;;;;;;;;;4998120;28;20494;-44
2022/11/07 12:56:55;;;;;;;20.60;9.05;;;;;;;;;;4994859;28;20150;-44
2022/11/07 12:59:24;;;;;;;16.33;8.02;;;;;;;;;;4995549;28;20045;-44
2022/11/07 13:02:17;;;;;;;14.23;7.43;;;;;;;;;;4996136;28;20652;-50
2022/11/07 13:04:48;;;;;;;;;;;;;;;;;;4997246;28;20125;-44
2022/11/07 13:07:40;;;;;;;11.48;6.05;;;;;;;;;;4990841;28;19918;-44
2022/11/07 13:10:25;;;;;;;12.68;5.78;;;;;;;;;;4996627;28;20050;-45
2022/11/07 13:12:53;;;;;;;15.90;6.40;;;;;;;;;;4998404;28;20145;-46
2022/11/07 13:15:19;;;;;;;20.17;6.25;;;;;;;;;;4996859;28;20467;-46
2022/11/07 13:17:45;;;;;;;18.88;7.55;;;;;;;;;;5001767;28;20049;-48
2022/11/07 13:20:19;;;;;;;12.63;5.95;;;;;;;;;;4995601;28;20054;-44
2022/11/07 13:22:47;;;;;;;9.55;5.15;;;;;;;;;;4996895;28;20094;-44
2022/11/07 13:25:15;;;;;;;10.10;6.18;;;;;;;;;;4993279;28;20061;-45
2022/11/07 13:27:54;;;;;;;9.63;6.45;;;;;;;;;;4996453;28;20117;-43
2022/11/07 13:30:21;;;;;;;17.40;8.25;;;;;;;;;;4998514;28;20117;-47
2022/11/07 13:32:49;;;;;;;11.45;7.00;;;;;;;;;;4996938;28;20707;-44
2022/11/07 13:35:28;;;;;;;12.77;6.60;;;;;;;;;;5001541;28;20038;-43
2022/11/07 13:37:59;;;;;;;9.45;6.07;;;;;;;;;;4995373;28;20123;-46
2022/11/07 13:40:38;;;;;;;10.65;5.85;;;;;;;;;;4994680;28;20014;-43
2022/11/07 13:43:12;;;;;;;8.73;6.93;;;;;;;;;;4999795;28;20045;-44
2022/11/07 13:45:47;;;;;;;7.50;5.45;;;;;;;;;;4993009;28;20035;-44
2022/11/07 13:48:20;;;;;;;5.85;4.68;;;;;;;;;;4996944;28;20041;-44
2022/11/07 13:50:55;;;;;;;9.38;5.15;;;;;;;;;;4996099;28;20084;-44
2022/11/07 13:53:28;;;;;;;9.55;5.25;;;;;;;;;;4999019;28;20104;-43
2022/11/07 13:56:02;;;;;;;8.80;5.43;;;;;;;;;;4994743;28;20031;-44
2022/11/07 13:58:32;;;;;;;8.07;5.70;;;;;;;;;;4996933;28;20109;-44
2022/11/07 14:01:09;;;;;;;9.40;6.22;;;;;;;;;;5000161;28;20045;-44
2022/11/07 14:03:34;;;;;;;8.63;5.90;;;;;;;;;;4994590;28;20046;-44
2022/11/07 14:06:01;;;;;;;11.93;5.57;;;;;;;;;;4996220;28;20044;-43
2022/11/07 14:08:36;;;;;;;5.95;4.88;;;;;;;;;;4988996;28;20046;-45
2022/11/07 14:11:03;;;;;;;9.07;4.78;;;;;;;;;;4992389;28;20038;-43
2022/11/07 14:13:36;;;;;;;5.75;4.80;;;;;;;;;;4994490;28;20396;-47
2022/11/07 14:16:06;;;;;;;9.48;4.90;;;;;;;;;;4992983;28;20022;-43
2022/11/07 14:18:39;;;;;;;4.95;3.83;;;;;;;;;;4990794;28;20034;-46
2022/11/07 14:21:04;;;;;;;6.07;4.20;;;;;;;;;;4995959;28;20097;-44
2022/11/07 14:23:31;;;;;;;7.05;5.03;;;;;;;;;;4998873;28;20434;-45
2022/11/07 14:25:56;;;;;;;6.22;4.43;;;;;;;;;;4992458;28;20026;-43
2022/11/07 14:28:23;;;;;;;9.30;5.30;;;;;;;;;;4997169;28;20061;-44
2022/11/07 14:30:50;;;;;;;6.40;5.22;;;;;;;;;;4994417;28;20659;-44
2022/11/07 14:33:19;;;;;;;10.80;5.30;;;;;;;;;;4997295;28;20486;-43
2022/11/07 14:35:47;;;;;;;6.05;4.80;;;;;;;;;;4993955;28;20029;-44
2022/11/07 14:38:24;;;;;;;3.85;3.42;;;;;;;;;;4989411;28;20045;-47
2022/11/07 14:40:54;;;;;;;4.22;3.58;;;;;;;;;;4989208;28;20022;-44
2022/11/07 14:43:23;;;;;;;6.22;3.55;;;;;;;;;;4996242;28;20038;-46
2022/11/07 14:45:59;;;;;;;6.03;3.70;;;;;;;;;;4992759;28;20025;-44
2022/11/07 14:48:26;;;;;;;6.90;4.45;;;;;;;;;;4990523;28;20089;-44
2022/11/07 14:50:52;;;;;;;6.03;4.55;;;;;;;;;;4997565;28;20062;-44
2022/11/07 14:53:26;;;;;;;7.55;5.13;;;;;;;;;;4995482;28;20070;-46
2022/11/07 14:55:55;;;;;;;7.75;5.13;;;;;;;;;;4997910;28;20032;-44
2022/11/07 14:58:23;;;;;;;7.90;5.57;;;;;;;;;;4994901;28;20066;-46